Time,TemperatureF,DewpointF,PressureIn,WindDirection,WindDirectionDegrees,WindSpeedMPH,WindSpeedGustMPH,Humidity,HourlyPrecipIn,Conditions,Clouds,dailyrainin,SolarRadiationWatts/m^2,SoftwareType,DateUTC
2013-09-06 00:00:00,47.8,47.6,30.05,ESE,119,0.0,0.0,99,0.00,,,-99.99,1.0,HOBO +U30 +Weather +,2013-09-06 04:00:00,
2013-09-06 00:01:00,47.9,47.8,30.05,ESE,119,0.0,0.0,99,0.00,,,-99.99,1.0,HOBO +U30 +Weather +,2013-09-06 04:01:00,
2013-09-06 00:02:00,47.9,47.7,30.05,ESE,119,0.0,0.0,99,0.00,,,-99.99,1.0,HOBO +U30 +Weather +,2013-09-06 04:02:00,
2013-09-06 00:03:00,47.7,47.6,30.04,ESE,119,0.0,0.0,99,0.00,,,-99.99,1.0,HOBO +U30 +Weather +,2013-09-06 04:03:00,
2013-09-06 00:13:00,47.6,47.4,30.05,ESE,119,0.0,0.0,99,0.00,,,-99.99,1.0,HOBO +U30 +Weather +,2013-09-06 04:13:00,
2013-09-06 00:14:00,47.3,47.2,30.05,ESE,119,0.0,0.0,99,0.00,,,-99.99,1.0,HOBO +U30 +Weather +,2013-09-06 04:14:00,
2013-09-06 00:15:00,47.2,47.1,30.05,ESE,119,0.0,0.0,99,0.00,,,-99.99,1.0,HOBO +U30 +Weather +,2013-09-06 04:15:00,
2013-09-06 00:16:00,47.2,47.0,30.05,ESE,119,0.0,0.0,99,0.00,,,-99.99,1.0,HOBO +U30 +Weather +,2013-09-06 04:16:00,
2013-09-06 00:17:00,47.1,46.9,30.05,ESE,119,0.0,0.0,99,0.00,,,-99.99,1.0,HOBO +U30 +Weather +,2013-09-06 04:17:00,
2013-09-06 00:18:00,47.1,47.0,30.05,ESE,119,0.0,0.0,99,0.00,,,-99.99,1.0,HOBO +U30 +Weather +,2013-09-06 04:18:00,
2013-09-06 00:19:00,47.2,47.0,30.05,ESE,119,0.0,0.0,99,0.00,,,-99.99,1.0,HOBO +U30 +Weather +,2013-09-06 04:19:00,
2013-09-06 00:20:00,47.2,47.1,30.05,ESE,119,0.0,0.0,99,0.00,,,-99.99,1.0,HOBO +U30 +Weather +,2013-09-06 04:20:00,
2013-09-06 00:21:00,47.3,47.2,30.05,ESE,119,0.0,0.0,99,0.00,,,-99.99,1.0,HOBO +U30 +Weather +,2013-09-06 04:21:00,
2013-09-06 00:22:00,47.2,47.1,30.05,ESE,119,0.0,0.0,99,0.00,,,-99.99,1.0,HOBO +U30 +Weather +,2013-09-06 04:22:00,
2013-09-06 00:32:00,47.1,47.0,30.05,ESE,119,0.0,0.0,99,0.00,,,-99.99,1.0,HOBO +U30 +Weather +,2013-09-06 04:32:00,
2013-09-06 00:40:00,46.8,46.7,30.04,ESE,119,0.0,0.0,99,0.00,,,-99.99,1.0,HOBO +U30 +Weather +,2013-09-06 04:40:00,
2013-09-06 00:50:00,46.9,46.8,30.06,ESE,119,0.0,0.0,99,0.00,,,-99.99,1.0,HOBO +U30 +Weather +,2013-09-06 04:50:00,
2013-09-06 01:00:00,46.5,46.4,30.05,ESE,119,0.0,0.0,99,0.00,,,-99.99,1.0,HOBO +U30 +Weather +,2013-09-06 05:00:00,
2013-09-06 01:10:00,46.6,46.5,30.06,ESE,119,0.0,0.0,99,0.00,,,-99.99,1.0,HOBO +U30 +Weather +,2013-09-06 05:10:00,
2013-09-06 01:20:00,46.3,46.2,30.06,ESE,119,0.0,0.0,99,0.00,,,-99.99,1.0,HOBO +U30 +Weather +,2013-09-06 05:20:00,
2013-09-06 01:21:00,46.3,46.2,30.06,ESE,119,0.0,0.0,99,0.00,,,-99.99,1.0,HOBO +U30 +Weather +,2013-09-06 05:21:00,
2013-09-06 01:31:00,46.3,46.2,30.06,ESE,119,0.0,0.0,99,0.00,,,-99.99,1.0,HOBO +U30 +Weather +,2013-09-06 05:31:00,
2013-09-06 01:32:00,45.8,45.8,30.07,ESE,119,0.0,0.0,99,0.00,,,-99.99,1.0,HOBO +U30 +Weather +,2013-09-06 05:32:00,
2013-09-06 01:33:00,45.8,45.8,30.06,ESE,119,0.0,0.0,99,0.00,,,-99.99,1.0,HOBO +U30 +Weather +,2013-09-06 05:33:00,
2013-09-06 01:34:00,45.8,45.7,30.07,ESE,119,0.0,0.0,99,0.00,,,-99.99,1.0,HOBO +U30 +Weather +,2013-09-06 05:34:00,
2013-09-06 01:35:00,45.8,45.7,30.07,ESE,119,0.0,0.0,99,0.00,,,-99.99,1.0,HOBO +U30 +Weather +,2013-09-06 05:35:00,
2013-09-06 01:36:00,45.8,45.7,30.07,ESE,119,0.0,0.0,99,0.00,,,-99.99,1.0,HOBO +U30 +Weather +,2013-09-06 05:36:00,
2013-09-06 01:37:00,45.8,45.7,30.06,ESE,119,0.0,0.0,99,0.00,,,-99.99,1.0,HOBO +U30 +Weather +,2013-09-06 05:37:00,
2013-09-06 01:38:00,45.8,45.8,30.06,ESE,119,0.0,0.0,99,0.00,,,-99.99,1.0,HOBO +U30 +Weather +,2013-09-06 05:38:00,
2013-09-06 01:39:00,45.9,45.8,30.06,ESE,119,0.0,0.0,99,0.00,,,-99.99,1.0,HOBO +U30 +Weather +,2013-09-06 05:39:00,
2013-09-06 01:40:00,46.0,45.9,30.06,ESE,119,0.0,0.0,99,0.00,,,-99.99,1.0,HOBO +U30 +Weather +,2013-09-06 05:40:00,
2013-09-06 01:41:00,46.3,46.2,30.06,ESE,119,0.0,0.0,99,0.00,,,-99.99,1.0,HOBO +U30 +Weather +,2013-09-06 05:41:00,
2013-09-06 01:51:00,46.4,46.4,30.07,ESE,119,0.0,0.0,99,0.00,,,-99.99,1.0,HOBO +U30 +Weather +,2013-09-06 05:51:00,
2013-09-06 01:59:00,46.1,46.0,30.06,ESE,119,0.0,0.0,99,0.00,,,-99.99,1.0,HOBO +U30 +Weather +,2013-09-06 05:59:00,
2013-09-06 02:09:00,45.9,45.8,30.07,ESE,119,0.0,0.0,99,0.00,,,-99.99,1.0,HOBO +U30 +Weather +,2013-09-06 06:09:00,
2013-09-06 02:19:00,46.0,46.0,30.07,ESE,119,0.0,0.0,99,0.00,,,-99.99,1.0,HOBO +U30 +Weather +,2013-09-06 06:19:00,
2013-09-06 02:20:00,46.0,45.9,30.07,ESE,119,0.0,0.0,99,0.00,,,-99.99,1.0,HOBO +U30 +Weather +,2013-09-06 06:20:00,
2013-09-06 02:30:00,46.1,46.0,30.08,ESE,119,0.0,0.0,99,0.00,,,-99.99,1.0,HOBO +U30 +Weather +,2013-09-06 06:30:00,
2013-09-06 02:39:00,45.7,45.5,30.07,ESE,119,0.0,0.0,99,0.00,,,-99.99,1.0,HOBO +U30 +Weather +,2013-09-06 06:39:00,
2013-09-06 02:40:00,45.0,44.8,30.07,ESE,119,0.0,0.0,99,0.00,,,-99.99,1.0,HOBO +U30 +Weather +,2013-09-06 06:40:00,
2013-09-06 02:41:00,45.0,44.8,30.07,ESE,119,0.0,0.0,99,0.00,,,-99.99,1.0,HOBO +U30 +Weather +,2013-09-06 06:41:00,
2013-09-06 02:42:00,45.0,44.8,30.07,ESE,119,0.0,0.0,99,0.00,,,-99.99,1.0,HOBO +U30 +Weather +,2013-09-06 06:42:00,
2013-09-06 02:43:00,45.0,44.8,30.08,ESE,119,0.0,0.0,99,0.00,,,-99.99,1.0,HOBO +U30 +Weather +,2013-09-06 06:43:00,
2013-09-06 02:44:00,45.0,44.8,30.08,ESE,119,0.0,0.0,99,0.00,,,-99.99,1.0,HOBO +U30 +Weather +,2013-09-06 06:44:00,
2013-09-06 02:45:00,45.0,44.7,30.07,ESE,119,0.0,0.0,99,0.00,,,-99.99,1.0,HOBO +U30 +Weather +,2013-09-06 06:45:00,
2013-09-06 02:46:00,45.0,44.7,30.07,ESE,119,0.0,0.0,99,0.00,,,-99.99,1.0,HOBO +U30 +Weather +,2013-09-06 06:46:00,
2013-09-06 02:47:00,44.9,44.7,30.07,ESE,119,0.0,0.0,99,0.00,,,-99.99,1.0,HOBO +U30 +Weather +,2013-09-06 06:47:00,
2013-09-06 02:48:00,44.9,44.7,30.07,ESE,119,0.0,0.0,99,0.00,,,-99.99,1.0,HOBO +U30 +Weather +,2013-09-06 06:48:00,
2013-09-06 02:49:00,44.9,44.7,30.07,ESE,119,0.0,0.0,99,0.00,,,-99.99,1.0,HOBO +U30 +Weather +,2013-09-06 06:49:00,
2013-09-06 02:50:00,44.9,44.7,30.07,ESE,119,0.0,0.0,99,0.00,,,-99.99,1.0,HOBO +U30 +Weather +,2013-09-06 06:50:00,
2013-09-06 03:00:00,45.0,44.8,30.07,ESE,119,0.0,0.0,99,0.00,,,-99.99,1.0,HOBO +U30 +Weather +,2013-09-06 07:00:00,
2013-09-06 03:01:00,44.8,44.6,30.07,ESE,119,0.0,0.0,99,0.00,,,-99.99,1.0,HOBO +U30 +Weather +,2013-09-06 07:01:00,
2013-09-06 03:02:00,44.8,44.6,30.07,ESE,119,0.0,0.0,99,0.00,,,-99.99,1.0,HOBO +U30 +Weather +,2013-09-06 07:02:00,
2013-09-06 03:03:00,44.7,44.5,30.07,ESE,119,0.0,0.0,99,0.00,,,-99.99,1.0,HOBO +U30 +Weather +,2013-09-06 07:03:00,
2013-09-06 03:04:00,44.7,44.5,30.07,ESE,119,0.0,0.0,99,0.00,,,-99.99,1.0,HOBO +U30 +Weather +,2013-09-06 07:04:00,
2013-09-06 03:05:00,44.7,44.5,30.07,ESE,119,0.0,0.0,99,0.00,,,-99.99,1.0,HOBO +U30 +Weather +,2013-09-06 07:05:00,
2013-09-06 03:06:00,44.7,44.5,30.07,ESE,119,0.0,0.0,99,0.00,,,-99.99,1.0,HOBO +U30 +Weather +,2013-09-06 07:06:00,
2013-09-06 03:07:00,44.6,44.5,30.07,ESE,119,0.0,0.0,99,0.00,,,-99.99,1.0,HOBO +U30 +Weather +,2013-09-06 07:07:00,
2013-09-06 03:08:00,44.6,44.5,30.07,ESE,119,0.0,0.0,99,0.00,,,-99.99,1.0,HOBO +U30 +Weather +,2013-09-06 07:08:00,
2013-09-06 03:19:00,44.6,44.4,30.07,ESE,119,0.0,0.0,99,0.00,,,-99.99,1.0,HOBO +U30 +Weather +,2013-09-06 07:19:00,
2013-09-06 03:28:00,44.3,44.2,30.07,ESE,119,0.0,0.0,99,0.00,,,-99.99,1.0,HOBO +U30 +Weather +,2013-09-06 07:28:00,
2013-09-06 03:29:00,44.2,44.1,30.07,ESE,119,0.0,0.0,99,0.00,,,-99.99,1.0,HOBO +U30 +Weather +,2013-09-06 07:29:00,
2013-09-06 03:30:00,44.3,44.2,30.07,ESE,119,0.0,0.0,99,0.00,,,-99.99,1.0,HOBO +U30 +Weather +,2013-09-06 07:30:00,
2013-09-06 03:31:00,44.2,44.2,30.08,ESE,119,0.0,0.0,99,0.00,,,-99.99,1.0,HOBO +U30 +Weather +,2013-09-06 07:31:00,
2013-09-06 03:32:00,44.2,44.1,30.07,ESE,119,0.0,0.0,99,0.00,,,-99.99,1.0,HOBO +U30 +Weather +,2013-09-06 07:32:00,
2013-09-06 03:33:00,44.2,44.1,30.07,ESE,119,0.0,0.0,99,0.00,,,-99.99,1.0,HOBO +U30 +Weather +,2013-09-06 07:33:00,
2013-09-06 03:34:00,44.2,44.1,30.08,ESE,119,0.0,0.0,99,0.00,,,-99.99,1.0,HOBO +U30 +Weather +,2013-09-06 07:34:00,
2013-09-06 03:35:00,44.1,44.0,30.07,ESE,119,0.0,0.0,99,0.00,,,-99.99,1.0,HOBO +U30 +Weather +,2013-09-06 07:35:00,
2013-09-06 03:36:00,44.1,44.0,30.07,ESE,119,0.0,0.0,99,0.00,,,-99.99,1.0,HOBO +U30 +Weather +,2013-09-06 07:36:00,
2013-09-06 03:37:00,44.1,44.0,30.07,ESE,119,0.0,0.0,99,0.00,,,-99.99,1.0,HOBO +U30 +Weather +,2013-09-06 07:37:00,
2013-09-06 03:38:00,44.0,44.0,30.07,ESE,119,0.0,0.0,99,0.00,,,-99.99,1.0,HOBO +U30 +Weather +,2013-09-06 07:38:00,
2013-09-06 03:48:00,44.0,44.0,30.07,ESE,119,0.0,0.0,99,0.00,,,-99.99,1.0,HOBO +U30 +Weather +,2013-09-06 07:48:00,
2013-09-06 03:57:00,43.7,43.7,30.08,ESE,119,0.0,0.0,100,0.00,,,-99.99,1.0,HOBO +U30 +Weather +,2013-09-06 07:57:00,
2013-09-06 03:58:00,43.9,43.8,30.07,ESE,119,0.0,0.0,99,0.00,,,-99.99,1.0,HOBO +U30 +Weather +,2013-09-06 07:58:00,
2013-09-06 04:07:00,43.7,43.7,30.07,ESE,119,0.0,0.0,100,0.00,,,-99.99,1.0,HOBO +U30 +Weather +,2013-09-06 08:07:00,
2013-09-06 04:08:00,43.8,43.8,30.08,ESE,119,0.0,0.0,100,0.00,,,-99.99,1.0,HOBO +U30 +Weather +,2013-09-06 08:08:00,
2013-09-06 04:18:00,43.8,43.8,30.08,ESE,119,0.0,0.0,100,0.00,,,-99.99,1.0,HOBO +U30 +Weather +,2013-09-06 08:18:00,
2013-09-06 04:28:00,43.6,43.6,30.08,ESE,119,0.0,0.0,100,0.00,,,-99.99,1.0,HOBO +U30 +Weather +,2013-09-06 08:28:00,
2013-09-06 04:37:00,43.8,43.8,30.09,ESE,119,0.0,0.0,100,0.00,,,-99.99,1.0,HOBO +U30 +Weather +,2013-09-06 08:37:00,
2013-09-06 04:47:00,43.6,43.6,30.09,ESE,119,0.0,0.0,100,0.00,,,-99.99,1.0,HOBO +U30 +Weather +,2013-09-06 08:47:00,
2013-09-06 04:48:00,43.8,43.8,30.09,ESE,119,0.0,0.0,100,0.00,,,-99.99,1.0,HOBO +U30 +Weather +,2013-09-06 08:48:00,
2013-09-06 04:57:00,43.4,43.5,30.09,ESE,119,0.0,0.0,100,0.00,,,-99.99,1.0,HOBO +U30 +Weather +,2013-09-06 08:57:00,
2013-09-06 04:58:00,43.7,43.7,30.09,ESE,119,0.0,0.0,100,0.00,,,-99.99,1.0,HOBO +U30 +Weather +,2013-09-06 08:58:00,
2013-09-06 05:07:00,43.4,43.5,30.09,ESE,119,0.0,0.0,100,0.00,,,-99.99,1.0,HOBO +U30 +Weather +,2013-09-06 09:07:00,
2013-09-06 05:17:00,43.4,43.4,30.10,ESE,119,0.0,0.0,100,0.00,,,-99.99,1.0,HOBO +U30 +Weather +,2013-09-06 09:17:00,
2013-09-06 05:27:00,43.3,43.3,30.10,ESE,119,0.0,0.0,100,0.00,,,-99.99,1.0,HOBO +U30 +Weather +,2013-09-06 09:27:00,
2013-09-06 05:37:00,43.4,43.5,30.11,ESE,119,0.0,0.0,100,0.00,,,-99.99,1.0,HOBO +U30 +Weather +,2013-09-06 09:37:00,
2013-09-06 05:47:00,43.3,43.3,30.10,ESE,119,0.0,0.0,100,0.00,,,-99.99,1.0,HOBO +U30 +Weather +,2013-09-06 09:47:00,
2013-09-06 05:57:00,43.3,43.3,30.11,ESE,119,0.0,0.0,100,0.00,,,-99.99,1.0,HOBO +U30 +Weather +,2013-09-06 09:57:00,
2013-09-06 06:07:00,43.5,43.6,30.11,ESE,119,0.0,0.0,100,0.00,,,-99.99,1.0,HOBO +U30 +Weather +,2013-09-06 10:07:00,
2013-09-06 06:17:00,43.4,43.4,30.11,ESE,119,0.0,0.0,100,0.00,,,-99.99,2.0,HOBO +U30 +Weather +,2013-09-06 10:17:00,
2013-09-06 06:27:00,43.4,43.4,30.11,ESE,119,0.0,0.0,100,0.00,,,-99.99,4.0,HOBO +U30 +Weather +,2013-09-06 10:27:00,
2013-09-06 06:37:00,44.0,44.0,30.12,ESE,119,0.0,0.0,100,0.00,,,-99.99,7.0,HOBO +U30 +Weather +,2013-09-06 10:37:00,
2013-09-06 06:47:00,44.0,44.1,30.12,ESE,119,0.0,0.0,100,0.00,,,-99.99,11.0,HOBO +U30 +Weather +,2013-09-06 10:47:00,
2013-09-06 06:57:00,44.2,44.2,30.12,ESE,119,0.0,0.0,100,0.00,,,-99.99,18.0,HOBO +U30 +Weather +,2013-09-06 10:57:00,
2013-09-06 07:07:00,45.7,45.7,30.12,SE,135,0.0,0.0,100,0.00,,,-99.99,21.0,HOBO +U30 +Weather +,2013-09-06 11:07:00,
2013-09-06 07:17:00,47.2,47.2,30.12,SE,132,0.0,0.0,100,0.00,,,-99.99,26.0,HOBO +U30 +Weather +,2013-09-06 11:17:00,
2013-09-06 07:27:00,48.8,48.8,30.13,SE,132,0.0,0.0,100,0.00,,,-99.99,28.0,HOBO +U30 +Weather +,2013-09-06 11:27:00,
2013-09-06 07:37:00,50.4,49.9,30.13,SE,132,0.0,0.0,98,0.00,,,-99.99,36.0,HOBO +U30 +Weather +,2013-09-06 11:37:00,
2013-09-06 07:38:00,52.4,51.3,30.14,SE,132,0.0,0.0,96,0.00,,,-99.99,64.0,HOBO +U30 +Weather +,2013-09-06 11:38:00,
2013-09-06 07:39:00,52.6,51.5,30.13,SE,132,0.0,0.0,95,0.00,,,-99.99,67.0,HOBO +U30 +Weather +,2013-09-06 11:39:00,
2013-09-06 07:40:00,52.5,51.2,30.14,SE,132,0.0,0.0,95,0.00,,,-99.99,72.0,HOBO +U30 +Weather +,2013-09-06 11:40:00,
2013-09-06 07:41:00,52.6,51.4,30.13,ESE,102,0.0,0.0,95,0.00,,,-99.99,74.0,HOBO +U30 +Weather +,2013-09-06 11:41:00,
2013-09-06 07:42:00,52.6,51.3,30.13,NE,56,0.0,0.0,95,0.00,,,-99.99,78.0,HOBO +U30 +Weather +,2013-09-06 11:42:00,
2013-09-06 07:43:00,52.6,51.3,30.14,NE,52,0.0,0.0,95,0.00,,,-99.99,82.0,HOBO +U30 +Weather +,2013-09-06 11:43:00,
2013-09-06 07:44:00,52.7,51.4,30.13,East,88,0.0,0.0,95,0.00,,,-99.99,86.0,HOBO +U30 +Weather +,2013-09-06 11:44:00,
2013-09-06 07:45:00,52.9,51.5,30.14,East,84,0.0,0.0,95,0.00,,,-99.99,89.0,HOBO +U30 +Weather +,2013-09-06 11:45:00,
2013-09-06 07:46:00,53.2,51.9,30.14,ESE,112,0.0,0.0,95,0.00,,,-99.99,92.0,HOBO +U30 +Weather +,2013-09-06 11:46:00,
2013-09-06 07:47:00,53.0,51.7,30.14,East,97,0.0,0.0,95,0.00,,,-99.99,96.0,HOBO +U30 +Weather +,2013-09-06 11:47:00,
2013-09-06 07:48:00,53.2,51.8,30.14,NE,52,0.0,0.0,95,0.00,,,-99.99,97.0,HOBO +U30 +Weather +,2013-09-06 11:48:00,
2013-09-06 07:49:00,53.1,51.7,30.13,NE,52,0.0,0.0,95,0.00,,,-99.99,99.0,HOBO +U30 +Weather +,2013-09-06 11:49:00,
2013-09-06 07:50:00,53.1,51.8,30.13,NE,52,0.0,0.0,95,0.00,,,-99.99,102.0,HOBO +U30 +Weather +,2013-09-06 11:50:00,
2013-09-06 07:51:00,53.3,52.0,30.14,NE,52,0.0,0.0,95,0.00,,,-99.99,104.0,HOBO +U30 +Weather +,2013-09-06 11:51:00,
2013-09-06 07:52:00,53.4,52.1,30.14,NE,52,0.0,0.0,95,0.00,,,-99.99,107.0,HOBO +U30 +Weather +,2013-09-06 11:52:00,
2013-09-06 07:53:00,53.6,52.2,30.13,NE,52,0.0,0.0,95,0.00,,,-99.99,108.0,HOBO +U30 +Weather +,2013-09-06 11:53:00,
2013-09-06 07:54:00,53.8,52.4,30.14,NE,52,0.0,0.0,95,0.00,,,-99.99,109.0,HOBO +U30 +Weather +,2013-09-06 11:54:00,
2013-09-06 07:55:00,53.9,52.5,30.14,ENE,62,0.0,0.0,94,0.00,,,-99.99,111.0,HOBO +U30 +Weather +,2013-09-06 11:55:00,
2013-09-06 07:56:00,54.1,52.6,30.14,ESE,118,0.0,0.0,94,0.00,,,-99.99,112.0,HOBO +U30 +Weather +,2013-09-06 11:56:00,
2013-09-06 07:57:00,54.2,52.6,30.14,ESE,114,0.0,0.0,94,0.00,,,-99.99,114.0,HOBO +U30 +Weather +,2013-09-06 11:57:00,
2013-09-06 07:58:00,54.3,52.7,30.14,East,90,0.0,0.0,94,0.00,,,-99.99,116.0,HOBO +U30 +Weather +,2013-09-06 11:58:00,
2013-09-06 07:59:00,54.6,52.9,30.14,ESE,115,0.0,0.0,93,0.00,,,-99.99,117.0,HOBO +U30 +Weather +,2013-09-06 11:59:00,
2013-09-06 08:00:00,54.9,53.0,30.14,ESE,114,0.0,0.0,93,0.00,,,-99.99,118.0,HOBO +U30 +Weather +,2013-09-06 12:00:00,
2013-09-06 08:01:00,55.1,53.4,30.14,ESE,114,0.0,0.0,93,0.00,,,-99.99,119.0,HOBO +U30 +Weather +,2013-09-06 12:01:00,
2013-09-06 08:02:00,55.3,53.4,30.14,East,93,0.0,0.0,93,0.00,,,-99.99,122.0,HOBO +U30 +Weather +,2013-09-06 12:02:00,
2013-09-06 08:03:00,55.3,53.4,30.14,NE,34,0.0,0.0,93,0.00,,,-99.99,123.0,HOBO +U30 +Weather +,2013-09-06 12:03:00,
2013-09-06 08:04:00,55.5,53.5,30.14,ENE,67,0.0,0.0,92,0.00,,,-99.99,124.0,HOBO +U30 +Weather +,2013-09-06 12:04:00,
2013-09-06 08:05:00,55.7,53.4,30.14,SE,132,0.0,0.0,92,0.00,,,-99.99,127.0,HOBO +U30 +Weather +,2013-09-06 12:05:00,
2013-09-06 08:06:00,55.7,53.0,30.14,SE,125,0.0,0.0,90,0.00,,,-99.99,128.0,HOBO +U30 +Weather +,2013-09-06 12:06:00,
2013-09-06 08:07:00,55.8,53.1,30.14,ESE,108,0.0,0.0,90,0.00,,,-99.99,129.0,HOBO +U30 +Weather +,2013-09-06 12:07:00,
2013-09-06 08:17:00,55.8,53.3,30.14,ESE,102,0.0,0.0,91,0.00,,,-99.99,131.0,HOBO +U30 +Weather +,2013-09-06 12:17:00,
2013-09-06 08:26:00,57.5,54.1,30.14,ENE,66,0.0,0.0,88,0.00,,,-99.99,146.0,HOBO +U30 +Weather +,2013-09-06 12:26:00,
2013-09-06 08:36:00,58.0,54.1,30.14,ENE,65,0.0,0.0,86,0.00,,,-99.99,161.0,HOBO +U30 +Weather +,2013-09-06 12:36:00,
2013-09-06 08:46:00,59.1,55.1,30.15,North,355,0.0,0.0,86,0.00,,,-99.99,174.0,HOBO +U30 +Weather +,2013-09-06 12:46:00,
2013-09-06 08:56:00,59.9,53.8,30.15,SE,126,0.0,0.0,80,0.00,,,-99.99,189.0,HOBO +U30 +Weather +,2013-09-06 12:56:00,
2013-09-06 08:57:00,60.4,53.8,30.14,SE,125,0.0,0.0,78,0.00,,,-99.99,207.0,HOBO +U30 +Weather +,2013-09-06 12:57:00,
2013-09-06 08:58:00,60.5,54.6,30.14,East,94,0.0,0.0,80,0.00,,,-99.99,208.0,HOBO +U30 +Weather +,2013-09-06 12:58:00,
2013-09-06 08:59:00,60.3,53.8,30.14,East,90,0.0,0.0,79,0.00,,,-99.99,211.0,HOBO +U30 +Weather +,2013-09-06 12:59:00,
2013-09-06 09:00:00,60.6,54.7,30.14,East,80,0.0,0.0,80,0.00,,,-99.99,212.0,HOBO +U30 +Weather +,2013-09-06 13:00:00,
2013-09-06 09:01:00,60.8,54.1,30.15,ESE,122,0.0,0.0,78,0.00,,,-99.99,213.0,HOBO +U30 +Weather +,2013-09-06 13:01:00,
2013-09-06 09:02:00,60.9,54.4,30.14,ESE,111,0.0,0.0,79,0.00,,,-99.99,216.0,HOBO +U30 +Weather +,2013-09-06 13:02:00,
2013-09-06 09:03:00,61.1,54.7,30.15,ENE,60,0.0,0.0,79,0.00,,,-99.99,217.0,HOBO +U30 +Weather +,2013-09-06 13:03:00,
2013-09-06 09:04:00,61.3,55.0,30.15,ENE,76,0.0,0.0,79,0.00,,,-99.99,219.0,HOBO +U30 +Weather +,2013-09-06 13:04:00,
2013-09-06 09:05:00,61.6,55.2,30.15,ESE,104,0.0,0.0,79,0.00,,,-99.99,222.0,HOBO +U30 +Weather +,2013-09-06 13:05:00,
2013-09-06 09:06:00,61.6,55.3,30.15,East,94,0.0,0.0,79,0.00,,,-99.99,223.0,HOBO +U30 +Weather +,2013-09-06 13:06:00,
2013-09-06 09:16:00,61.8,55.3,30.15,ESE,114,0.0,0.0,79,0.00,,,-99.99,224.0,HOBO +U30 +Weather +,2013-09-06 13:16:00,
2013-09-06 09:25:00,61.9,54.8,30.15,NE,46,0.0,0.0,77,0.00,,,-99.99,253.0,HOBO +U30 +Weather +,2013-09-06 13:25:00,
2013-09-06 09:26:00,61.3,54.2,30.15,NNE,32,0.0,0.0,77,0.00,,,-99.99,234.0,HOBO +U30 +Weather +,2013-09-06 13:26:00,
2013-09-06 09:35:00,61.9,54.4,30.14,ENE,62,0.0,0.0,76,0.00,,,-99.99,254.0,HOBO +U30 +Weather +,2013-09-06 13:35:00,
2013-09-06 09:36:00,62.5,54.5,30.14,East,91,0.0,0.0,75,0.00,,,-99.99,277.0,HOBO +U30 +Weather +,2013-09-06 13:36:00,
2013-09-06 09:45:00,63.1,54.6,30.14,NE,56,0.0,0.0,73,0.00,,,-99.99,227.0,HOBO +U30 +Weather +,2013-09-06 13:45:00,
2013-09-06 09:46:00,62.8,55.3,30.14,East,81,0.0,0.0,76,0.00,,,-99.99,278.0,HOBO +U30 +Weather +,2013-09-06 13:46:00,
2013-09-06 09:47:00,62.9,54.7,30.15,East,101,0.0,0.0,74,0.00,,,-99.99,278.0,HOBO +U30 +Weather +,2013-09-06 13:47:00,
2013-09-06 09:57:00,63.1,54.8,30.15,NE,44,0.0,0.0,74,0.00,,,-99.99,278.0,HOBO +U30 +Weather +,2013-09-06 13:57:00,
2013-09-06 10:06:00,63.9,54.5,30.14,NE,52,0.0,0.0,71,0.00,,,-99.99,306.0,HOBO +U30 +Weather +,2013-09-06 14:06:00,
2013-09-06 10:16:00,64.8,55.4,30.15,ESE,122,0.0,0.0,71,0.00,,,-99.99,54.0,HOBO +U30 +Weather +,2013-09-06 14:16:00,
2013-09-06 10:26:00,65.2,54.2,30.14,ESE,112,0.0,0.0,67,0.00,,,-99.99,338.0,HOBO +U30 +Weather +,2013-09-06 14:26:00,
2013-09-06 10:36:00,65.6,53.5,30.14,ESE,114,0.0,0.0,64,0.00,,,-99.99,363.0,HOBO +U30 +Weather +,2013-09-06 14:36:00,
2013-09-06 10:46:00,63.8,50.9,30.14,SE,129,0.0,0.0,62,0.00,,,-99.99,109.0,HOBO +U30 +Weather +,2013-09-06 14:46:00,
2013-09-06 10:47:00,65.2,52.1,30.13,SE,146,0.0,0.0,62,0.00,,,-99.99,384.0,HOBO +U30 +Weather +,2013-09-06 14:47:00,
2013-09-06 10:48:00,65.0,51.8,30.14,SE,128,0.0,0.0,62,0.00,,,-99.99,372.0,HOBO +U30 +Weather +,2013-09-06 14:48:00,
2013-09-06 10:49:00,65.1,52.1,30.14,ESE,118,0.0,0.0,62,0.00,,,-99.99,374.0,HOBO +U30 +Weather +,2013-09-06 14:49:00,
2013-09-06 10:50:00,65.1,52.3,30.14,East,91,0.0,0.0,63,0.00,,,-99.99,381.0,HOBO +U30 +Weather +,2013-09-06 14:50:00,
2013-09-06 10:51:00,64.9,51.9,30.14,East,97,0.0,0.0,62,0.00,,,-99.99,407.0,HOBO +U30 +Weather +,2013-09-06 14:51:00,
2013-09-06 10:52:00,65.3,52.7,30.14,East,91,0.0,0.0,63,0.00,,,-99.99,399.0,HOBO +U30 +Weather +,2013-09-06 14:52:00,
2013-09-06 10:53:00,65.6,52.6,30.14,ESE,119,0.0,0.0,62,0.00,,,-99.99,397.0,HOBO +U30 +Weather +,2013-09-06 14:53:00,
2013-09-06 10:54:00,66.0,53.3,30.14,East,97,0.0,0.0,63,0.00,,,-99.99,404.0,HOBO +U30 +Weather +,2013-09-06 14:54:00,
2013-09-06 10:55:00,66.3,53.2,30.14,ESE,112,0.0,0.0,62,0.00,,,-99.99,419.0,HOBO +U30 +Weather +,2013-09-06 14:55:00,
2013-09-06 10:56:00,66.7,54.0,30.14,SE,128,0.0,0.0,63,0.00,,,-99.99,424.0,HOBO +U30 +Weather +,2013-09-06 14:56:00,
2013-09-06 11:06:00,67.0,53.8,30.14,ENE,59,0.0,0.0,62,0.00,,,-99.99,449.0,HOBO +U30 +Weather +,2013-09-06 15:06:00,
2013-09-06 11:15:00,64.2,52.6,30.14,North,6,0.0,0.0,65,0.00,,,-99.99,432.0,HOBO +U30 +Weather +,2013-09-06 15:15:00,
2013-09-06 11:25:00,66.6,53.9,30.14,East,98,0.0,0.0,63,0.00,,,-99.99,501.0,HOBO +U30 +Weather +,2013-09-06 15:25:00,
2013-09-06 11:35:00,64.7,51.8,30.14,ESE,118,0.0,0.0,62,0.00,,,-99.99,384.0,HOBO +U30 +Weather +,2013-09-06 15:35:00,
2013-09-06 11:45:00,66.7,52.2,30.14,ENE,76,0.0,0.0,59,0.00,,,-99.99,279.0,HOBO +U30 +Weather +,2013-09-06 15:45:00,
2013-09-06 11:55:00,64.6,52.7,30.13,ESE,107,0.0,0.0,65,0.00,,,-99.99,538.0,HOBO +U30 +Weather +,2013-09-06 15:55:00,
2013-09-06 12:05:00,65.0,51.4,30.13,SE,125,0.0,0.0,61,0.00,,,-99.99,583.0,HOBO +U30 +Weather +,2013-09-06 16:05:00,
2013-09-06 12:15:00,64.8,52.3,30.14,SE,132,0.0,0.0,64,0.00,,,-99.99,593.0,HOBO +U30 +Weather +,2013-09-06 16:15:00,
2013-09-06 12:16:00,67.2,53.2,30.13,ENE,73,0.0,0.0,60,0.00,,,-99.99,554.0,HOBO +U30 +Weather +,2013-09-06 16:16:00,
2013-09-06 12:26:00,67.4,53.3,30.13,East,95,0.0,0.0,60,0.00,,,-99.99,563.0,HOBO +U30 +Weather +,2013-09-06 16:26:00,
2013-09-06 12:35:00,65.4,51.2,30.12,South,185,0.0,0.0,59,0.00,,,-99.99,592.0,HOBO +U30 +Weather +,2013-09-06 16:35:00,
2013-09-06 12:36:00,67.4,53.0,30.12,SE,135,0.0,0.0,59,0.00,,,-99.99,644.0,HOBO +U30 +Weather +,2013-09-06 16:36:00,
2013-09-06 12:46:00,67.6,52.7,30.13,South,173,0.0,0.0,58,0.00,,,-99.99,508.0,HOBO +U30 +Weather +,2013-09-06 16:46:00,
2013-09-06 12:55:00,66.8,53.1,30.12,SE,132,0.0,0.0,61,0.00,,,-99.99,338.0,HOBO +U30 +Weather +,2013-09-06 16:55:00,
2013-09-06 13:05:00,67.2,52.4,30.12,SSE,157,0.0,0.0,59,0.00,,,-99.99,502.0,HOBO +U30 +Weather +,2013-09-06 17:05:00,
2013-09-06 13:06:00,67.2,51.7,30.11,SE,146,0.0,0.0,57,0.00,,,-99.99,183.0,HOBO +U30 +Weather +,2013-09-06 17:06:00,
2013-09-06 13:07:00,66.3,51.5,30.11,SE,135,0.0,0.0,58,0.00,,,-99.99,171.0,HOBO +U30 +Weather +,2013-09-06 17:07:00,
2013-09-06 13:08:00,66.1,52.2,30.11,ESE,114,0.0,0.0,60,0.00,,,-99.99,167.0,HOBO +U30 +Weather +,2013-09-06 17:08:00,
2013-09-06 13:09:00,65.7,52.0,30.11,ENE,66,0.0,0.0,61,0.00,,,-99.99,158.0,HOBO +U30 +Weather +,2013-09-06 17:09:00,
2013-09-06 13:10:00,65.1,51.8,30.11,NE,39,0.0,0.0,62,0.00,,,-99.99,157.0,HOBO +U30 +Weather +,2013-09-06 17:10:00,
2013-09-06 13:11:00,64.7,51.6,30.12,NNE,21,0.0,0.0,62,0.00,,,-99.99,154.0,HOBO +U30 +Weather +,2013-09-06 17:11:00,
2013-09-06 13:12:00,64.1,50.8,30.11,NNE,17,0.0,0.0,62,0.00,,,-99.99,171.0,HOBO +U30 +Weather +,2013-09-06 17:12:00,
2013-09-06 13:13:00,64.2,51.7,30.12,NNE,17,0.0,0.0,63,0.00,,,-99.99,186.0,HOBO +U30 +Weather +,2013-09-06 17:13:00,
2013-09-06 13:14:00,64.5,51.9,30.11,NNE,17,0.0,0.0,63,0.00,,,-99.99,214.0,HOBO +U30 +Weather +,2013-09-06 17:14:00,
2013-09-06 13:15:00,64.8,51.3,30.12,SSW,204,0.0,0.0,61,0.00,,,-99.99,626.0,HOBO +U30 +Weather +,2013-09-06 17:15:00,
2013-09-06 13:25:00,65.4,51.7,30.11,SSW,199,0.0,0.0,61,0.00,,,-99.99,614.0,HOBO +U30 +Weather +,2013-09-06 17:25:00,
2013-09-06 13:34:00,68.1,54.2,30.11,ESE,111,0.0,0.0,61,0.00,,,-99.99,608.0,HOBO +U30 +Weather +,2013-09-06 17:34:00,
2013-09-06 13:35:00,65.5,51.5,30.11,ESE,119,0.0,0.0,60,0.00,,,-99.99,208.0,HOBO +U30 +Weather +,2013-09-06 17:35:00,
2013-09-06 13:36:00,65.8,53.2,30.11,ENE,59,0.0,0.0,63,0.00,,,-99.99,234.0,HOBO +U30 +Weather +,2013-09-06 17:36:00,
2013-09-06 13:37:00,66.0,53.3,30.11,ESE,110,0.0,0.0,63,0.00,,,-99.99,211.0,HOBO +U30 +Weather +,2013-09-06 17:37:00,
2013-09-06 13:38:00,66.1,53.7,30.11,ENE,73,0.0,0.0,64,0.00,,,-99.99,213.0,HOBO +U30 +Weather +,2013-09-06 17:38:00,
2013-09-06 13:39:00,66.0,53.3,30.11,NE,46,0.0,0.0,63,0.00,,,-99.99,207.0,HOBO +U30 +Weather +,2013-09-06 17:39:00,
2013-09-06 13:40:00,65.4,52.1,30.11,East,84,0.0,0.0,62,0.00,,,-99.99,192.0,HOBO +U30 +Weather +,2013-09-06 17:40:00,
2013-09-06 13:41:00,65.2,52.0,30.11,ESE,104,0.0,0.0,62,0.00,,,-99.99,188.0,HOBO +U30 +Weather +,2013-09-06 17:41:00,
2013-09-06 13:42:00,65.0,52.5,30.11,East,79,0.0,0.0,63,0.00,,,-99.99,187.0,HOBO +U30 +Weather +,2013-09-06 17:42:00,
2013-09-06 13:43:00,64.8,52.1,30.11,ESE,121,0.0,0.0,63,0.00,,,-99.99,568.0,HOBO +U30 +Weather +,2013-09-06 17:43:00,
2013-09-06 13:44:00,65.1,53.1,30.11,ENE,74,0.0,0.0,64,0.00,,,-99.99,221.0,HOBO +U30 +Weather +,2013-09-06 17:44:00,
2013-09-06 13:54:00,65.3,52.8,30.11,East,91,0.0,0.0,63,0.00,,,-99.99,211.0,HOBO +U30 +Weather +,2013-09-06 17:54:00,
2013-09-06 14:04:00,68.1,51.7,30.10,SE,135,0.0,0.0,55,0.00,,,-99.99,608.0,HOBO +U30 +Weather +,2013-09-06 18:04:00,
2013-09-06 14:14:00,69.1,51.9,30.10,ESE,115,0.0,0.0,54,0.00,,,-99.99,228.0,HOBO +U30 +Weather +,2013-09-06 18:14:00,
2013-09-06 14:15:00,67.4,51.9,30.10,East,101,0.0,0.0,57,0.00,,,-99.99,333.0,HOBO +U30 +Weather +,2013-09-06 18:15:00,
2013-09-06 14:16:00,67.0,52.0,30.09,ESE,104,0.0,0.0,58,0.00,,,-99.99,233.0,HOBO +U30 +Weather +,2013-09-06 18:16:00,
2013-09-06 14:17:00,66.0,51.2,30.09,ESE,121,0.0,0.0,58,0.00,,,-99.99,234.0,HOBO +U30 +Weather +,2013-09-06 18:17:00,
2013-09-06 14:18:00,65.7,52.3,30.09,ESE,117,0.0,0.0,61,0.00,,,-99.99,218.0,HOBO +U30 +Weather +,2013-09-06 18:18:00,
2013-09-06 14:19:00,65.5,51.6,30.10,SSW,211,0.0,0.0,60,0.00,,,-99.99,203.0,HOBO +U30 +Weather +,2013-09-06 18:19:00,
2013-09-06 14:20:00,65.3,51.6,30.10,SSE,157,0.0,0.0,61,0.00,,,-99.99,243.0,HOBO +U30 +Weather +,2013-09-06 18:20:00,
2013-09-06 14:21:00,65.4,52.3,30.09,ESE,122,0.0,0.0,62,0.00,,,-99.99,253.0,HOBO +U30 +Weather +,2013-09-06 18:21:00,
2013-09-06 14:22:00,65.7,52.9,30.09,ESE,110,0.0,0.0,63,0.00,,,-99.99,261.0,HOBO +U30 +Weather +,2013-09-06 18:22:00,
2013-09-06 14:23:00,65.8,52.2,30.10,SSE,163,0.0,0.0,61,0.00,,,-99.99,187.0,HOBO +U30 +Weather +,2013-09-06 18:23:00,
2013-09-06 14:24:00,65.7,52.2,30.09,SSE,147,0.0,0.0,61,0.00,,,-99.99,222.0,HOBO +U30 +Weather +,2013-09-06 18:24:00,
2013-09-06 14:34:00,65.8,52.4,30.09,South,187,0.0,0.0,61,0.00,,,-99.99,184.0,HOBO +U30 +Weather +,2013-09-06 18:34:00,
2013-09-06 14:35:00,66.4,52.9,30.09,ESE,122,0.0,0.0,61,0.00,,,-99.99,406.0,HOBO +U30 +Weather +,2013-09-06 18:35:00,
2013-09-06 14:36:00,66.7,53.6,30.10,ENE,66,0.0,0.0,62,0.00,,,-99.99,647.0,HOBO +U30 +Weather +,2013-09-06 18:36:00,
2013-09-06 14:37:00,66.8,52.8,30.09,ESE,118,0.0,0.0,60,0.00,,,-99.99,691.0,HOBO +U30 +Weather +,2013-09-06 18:37:00,
2013-09-06 14:38:00,66.7,51.9,30.10,SE,126,0.0,0.0,58,0.00,,,-99.99,729.0,HOBO +U30 +Weather +,2013-09-06 18:38:00,
2013-09-06 14:39:00,66.5,51.9,30.10,SE,124,0.0,0.0,59,0.00,,,-99.99,548.0,HOBO +U30 +Weather +,2013-09-06 18:39:00,
2013-09-06 14:40:00,67.0,53.6,30.10,East,87,0.0,0.0,62,0.00,,,-99.99,454.0,HOBO +U30 +Weather +,2013-09-06 18:40:00,
2013-09-06 14:41:00,67.6,53.7,30.09,ESE,110,0.0,0.0,61,0.00,,,-99.99,416.0,HOBO +U30 +Weather +,2013-09-06 18:41:00,
2013-09-06 14:42:00,67.2,52.8,30.09,SSE,161,0.0,0.0,59,0.00,,,-99.99,442.0,HOBO +U30 +Weather +,2013-09-06 18:42:00,
2013-09-06 14:52:00,67.3,53.2,30.09,NNE,13,0.0,0.0,60,0.00,,,-99.99,512.0,HOBO +U30 +Weather +,2013-09-06 18:52:00,
2013-09-06 15:01:00,67.5,52.1,30.09,ESE,117,0.0,0.0,57,0.00,,,-99.99,623.0,HOBO +U30 +Weather +,2013-09-06 19:01:00,
2013-09-06 15:11:00,68.7,52.5,30.09,SSE,152,0.0,0.0,56,0.00,,,-99.99,324.0,HOBO +U30 +Weather +,2013-09-06 19:11:00,
2013-09-06 15:21:00,69.1,52.9,30.08,NNW,330,0.0,0.0,56,0.00,,,-99.99,297.0,HOBO +U30 +Weather +,2013-09-06 19:21:00,
2013-09-06 15:31:00,66.9,52.5,30.08,WNW,300,0.0,0.0,59,0.00,,,-99.99,296.0,HOBO +U30 +Weather +,2013-09-06 19:31:00,
2013-09-06 15:41:00,65.4,52.2,30.08,NE,49,0.0,0.0,62,0.00,,,-99.99,373.0,HOBO +U30 +Weather +,2013-09-06 19:41:00,
2013-09-06 15:51:00,64.8,51.9,30.08,NNE,18,0.0,0.0,63,0.00,,,-99.99,344.0,HOBO +U30 +Weather +,2013-09-06 19:51:00,
2013-09-06 16:01:00,66.4,53.9,30.09,NNE,14,0.0,0.0,63,0.00,,,-99.99,314.0,HOBO +U30 +Weather +,2013-09-06 20:01:00,
2013-09-06 16:11:00,64.8,54.1,30.07,WNW,292,0.0,0.0,68,0.00,,,-99.99,176.0,HOBO +U30 +Weather +,2013-09-06 20:11:00,
2013-09-06 16:12:00,63.8,52.8,30.07,East,95,0.0,0.0,67,0.00,,,-99.99,174.0,HOBO +U30 +Weather +,2013-09-06 20:12:00,
2013-09-06 16:22:00,63.8,52.9,30.06,ESE,102,0.0,0.0,67,0.00,,,-99.99,178.0,HOBO +U30 +Weather +,2013-09-06 20:22:00,
2013-09-06 16:23:00,64.1,52.3,30.08,SSW,199,0.0,0.0,65,0.00,,,-99.99,178.0,HOBO +U30 +Weather +,2013-09-06 20:23:00,
2013-09-06 16:24:00,63.9,52.5,30.07,South,175,0.0,0.0,66,0.00,,,-99.99,174.0,HOBO +U30 +Weather +,2013-09-06 20:24:00,
2013-09-06 16:25:00,63.8,52.7,30.07,SSW,198,0.0,0.0,67,0.00,,,-99.99,176.0,HOBO +U30 +Weather +,2013-09-06 20:25:00,
2013-09-06 16:26:00,63.9,52.6,30.07,SE,131,0.0,0.0,66,0.00,,,-99.99,171.0,HOBO +U30 +Weather +,2013-09-06 20:26:00,
2013-09-06 16:27:00,64.0,52.8,30.08,South,177,0.0,0.0,66,0.00,,,-99.99,169.0,HOBO +U30 +Weather +,2013-09-06 20:27:00,
2013-09-06 16:28:00,64.0,52.4,30.08,South,191,0.0,0.0,65,0.00,,,-99.99,169.0,HOBO +U30 +Weather +,2013-09-06 20:28:00,
2013-09-06 16:29:00,64.0,52.6,30.08,SSW,209,0.0,0.0,66,0.00,,,-99.99,178.0,HOBO +U30 +Weather +,2013-09-06 20:29:00,
2013-09-06 16:30:00,63.9,52.5,30.08,SSW,206,0.0,0.0,66,0.00,,,-99.99,174.0,HOBO +U30 +Weather +,2013-09-06 20:30:00,
2013-09-06 16:31:00,63.9,53.0,30.08,SSW,213,0.0,0.0,67,0.00,,,-99.99,172.0,HOBO +U30 +Weather +,2013-09-06 20:31:00,
2013-09-06 16:32:00,64.1,53.4,30.08,SSW,213,0.0,0.0,68,0.00,,,-99.99,173.0,HOBO +U30 +Weather +,2013-09-06 20:32:00,
2013-09-06 16:42:00,64.1,53.2,30.08,SSE,152,0.0,0.0,67,0.00,,,-99.99,176.0,HOBO +U30 +Weather +,2013-09-06 20:42:00,
2013-09-06 16:51:00,63.6,52.3,30.08,SE,125,0.0,0.0,66,0.00,,,-99.99,231.0,HOBO +U30 +Weather +,2013-09-06 20:51:00,
2013-09-06 17:01:00,64.8,52.5,30.08,SE,124,0.0,0.0,64,0.00,,,-99.99,507.0,HOBO +U30 +Weather +,2013-09-06 21:01:00,
2013-09-06 17:10:00,64.6,52.5,30.08,ESE,111,0.0,0.0,64,0.00,,,-99.99,403.0,HOBO +U30 +Weather +,2013-09-06 21:10:00,
2013-09-06 17:11:00,63.1,51.5,30.07,SE,136,0.0,0.0,65,0.00,,,-99.99,146.0,HOBO +U30 +Weather +,2013-09-06 21:11:00,
2013-09-06 17:21:00,63.1,51.4,30.08,SE,124,0.0,0.0,65,0.00,,,-99.99,144.0,HOBO +U30 +Weather +,2013-09-06 21:21:00,
2013-09-06 17:31:00,62.7,52.9,30.07,ESE,121,0.0,0.0,70,0.00,,,-99.99,138.0,HOBO +U30 +Weather +,2013-09-06 21:31:00,
2013-09-06 17:41:00,62.4,53.4,30.08,ESE,119,0.0,0.0,72,0.00,,,-99.99,141.0,HOBO +U30 +Weather +,2013-09-06 21:41:00,
2013-09-06 17:51:00,62.0,53.3,30.07,ESE,105,0.0,0.0,73,0.00,,,-99.99,112.0,HOBO +U30 +Weather +,2013-09-06 21:51:00,
2013-09-06 18:00:00,62.2,54.0,30.07,SE,140,0.0,0.0,74,0.00,,,-99.99,187.0,HOBO +U30 +Weather +,2013-09-06 22:00:00,
2013-09-06 18:10:00,61.8,54.0,30.07,SE,135,0.0,0.0,75,0.00,,,-99.99,106.0,HOBO +U30 +Weather +,2013-09-06 22:10:00,
2013-09-06 18:11:00,61.7,53.8,30.07,South,190,0.0,0.0,75,0.00,,,-99.99,78.0,HOBO +U30 +Weather +,2013-09-06 22:11:00,
2013-09-06 18:21:00,61.3,53.6,30.07,SE,133,0.0,0.0,75,0.00,,,-99.99,74.0,HOBO +U30 +Weather +,2013-09-06 22:21:00,
2013-09-06 18:31:00,59.5,53.5,30.07,SE,133,0.0,0.0,80,0.00,,,-99.99,53.0,HOBO +U30 +Weather +,2013-09-06 22:31:00,
2013-09-06 18:40:00,59.2,53.3,30.07,SE,133,0.0,0.0,80,0.00,,,-99.99,38.0,HOBO +U30 +Weather +,2013-09-06 22:40:00,
2013-09-06 18:50:00,57.4,53.1,30.07,SE,133,0.0,0.0,85,0.00,,,-99.99,28.0,HOBO +U30 +Weather +,2013-09-06 22:50:00,
2013-09-06 18:51:00,56.5,52.8,30.07,SE,133,0.0,0.0,87,0.00,,,-99.99,21.0,HOBO +U30 +Weather +,2013-09-06 22:51:00,
2013-09-06 19:01:00,56.5,52.8,30.07,SE,133,0.0,0.0,87,0.00,,,-99.99,19.0,HOBO +U30 +Weather +,2013-09-06 23:01:00,
2013-09-06 19:10:00,55.8,52.6,30.07,SE,133,0.0,0.0,88,0.00,,,-99.99,11.0,HOBO +U30 +Weather +,2013-09-06 23:10:00,
2013-09-06 19:20:00,54.9,52.0,30.06,SE,133,0.0,0.0,90,0.00,,,-99.99,6.0,HOBO +U30 +Weather +,2013-09-06 23:20:00,
2013-09-06 19:30:00,54.1,51.5,30.07,SE,133,0.0,0.0,91,0.00,,,-99.99,1.0,HOBO +U30 +Weather +,2013-09-06 23:30:00,
2013-09-06 19:40:00,53.9,51.5,30.07,SE,133,0.0,0.0,91,0.00,,,-99.99,1.0,HOBO +U30 +Weather +,2013-09-06 23:40:00,
2013-09-06 19:50:00,52.9,50.9,30.07,SE,133,0.0,0.0,92,0.00,,,-99.99,1.0,HOBO +U30 +Weather +,2013-09-06 23:50:00,
2013-09-06 19:51:00,52.3,50.6,30.07,SE,133,0.0,0.0,93,0.00,,,-99.99,1.0,HOBO +U30 +Weather +,2013-09-06 23:51:00,
2013-09-06 19:52:00,52.3,50.6,30.07,SE,133,0.0,0.0,93,0.00,,,-99.99,1.0,HOBO +U30 +Weather +,2013-09-06 23:52:00,
2013-09-06 19:53:00,52.5,50.8,30.07,SE,133,0.0,0.0,93,0.00,,,-99.99,1.0,HOBO +U30 +Weather +,2013-09-06 23:53:00,
2013-09-06 19:54:00,52.6,50.9,30.07,SE,133,0.0,0.0,93,0.00,,,-99.99,1.0,HOBO +U30 +Weather +,2013-09-06 23:54:00,
2013-09-06 19:55:00,52.6,50.9,30.07,SE,133,0.0,0.0,93,0.00,,,-99.99,1.0,HOBO +U30 +Weather +,2013-09-06 23:55:00,
2013-09-06 19:56:00,52.5,50.8,30.07,SE,133,0.0,0.0,93,0.00,,,-99.99,1.0,HOBO +U30 +Weather +,2013-09-06 23:56:00,
2013-09-06 19:57:00,52.4,50.7,30.07,SE,133,0.0,0.0,93,0.00,,,-99.99,1.0,HOBO +U30 +Weather +,2013-09-06 23:57:00,
2013-09-06 19:58:00,52.3,50.6,30.07,SE,133,0.0,0.0,93,0.00,,,-99.99,1.0,HOBO +U30 +Weather +,2013-09-06 23:58:00,
2013-09-06 19:59:00,52.2,50.5,30.07,SE,133,0.0,0.0,93,0.00,,,-99.99,1.0,HOBO +U30 +Weather +,2013-09-06 23:59:00,
2013-09-06 20:00:00,52.2,50.5,30.07,SE,133,0.0,0.0,93,0.00,,,-99.99,1.0,HOBO +U30 +Weather +,2013-09-07 00:00:00,
2013-09-06 20:01:00,52.1,50.4,30.07,SE,133,0.0,0.0,93,0.00,,,-99.99,1.0,HOBO +U30 +Weather +,2013-09-07 00:01:00,
2013-09-06 20:11:00,52.0,50.4,30.07,SE,133,0.0,0.0,93,0.00,,,-99.99,1.0,HOBO +U30 +Weather +,2013-09-07 00:11:00,
2013-09-06 20:20:00,52.2,50.4,30.07,SE,133,0.0,0.0,93,0.00,,,-99.99,1.0,HOBO +U30 +Weather +,2013-09-07 00:20:00,
2013-09-06 20:30:00,51.3,49.5,30.07,SE,133,0.0,0.0,93,0.00,,,-99.99,1.0,HOBO +U30 +Weather +,2013-09-07 00:30:00,
2013-09-06 20:40:00,50.9,49.5,30.07,SE,133,0.0,0.0,94,0.00,,,-99.99,1.0,HOBO +U30 +Weather +,2013-09-07 00:40:00,
2013-09-06 20:50:00,50.2,48.8,30.07,SE,133,0.0,0.0,95,0.00,,,-99.99,1.0,HOBO +U30 +Weather +,2013-09-07 00:50:00,
2013-09-06 20:59:00,50.4,49.1,30.07,SE,133,0.0,0.0,95,0.00,,,-99.99,1.0,HOBO +U30 +Weather +,2013-09-07 00:59:00,
2013-09-06 21:09:00,49.6,48.3,30.07,SE,133,0.0,0.0,95,0.00,,,-99.99,1.0,HOBO +U30 +Weather +,2013-09-07 01:09:00,
2013-09-06 21:10:00,48.9,47.8,30.07,SE,133,0.0,0.0,95,0.00,,,-99.99,1.0,HOBO +U30 +Weather +,2013-09-07 01:10:00,
2013-09-06 21:20:00,48.9,47.8,30.07,SE,133,0.0,0.0,95,0.00,,,-99.99,1.0,HOBO +U30 +Weather +,2013-09-07 01:20:00,
2013-09-06 21:30:00,48.6,47.7,30.07,SE,133,0.0,0.0,96,0.00,,,-99.99,1.0,HOBO +U30 +Weather +,2013-09-07 01:30:00,
2013-09-06 21:39:00,48.5,47.6,30.06,SE,133,0.0,0.0,96,0.00,,,-99.99,1.0,HOBO +U30 +Weather +,2013-09-07 01:39:00,
2013-09-06 21:49:00,48.1,47.3,30.07,SE,133,0.0,0.0,96,0.00,,,-99.99,1.0,HOBO +U30 +Weather +,2013-09-07 01:49:00,
2013-09-06 21:50:00,48.7,47.9,30.07,SE,133,0.0,0.0,97,0.00,,,-99.99,1.0,HOBO +U30 +Weather +,2013-09-07 01:50:00,
2013-09-06 21:51:00,48.8,47.9,30.06,SE,133,0.0,0.0,96,0.00,,,-99.99,1.0,HOBO +U30 +Weather +,2013-09-07 01:51:00,
2013-09-06 21:52:00,48.6,47.8,30.07,SE,133,0.0,0.0,96,0.00,,,-99.99,1.0,HOBO +U30 +Weather +,2013-09-07 01:52:00,
2013-09-06 21:53:00,48.5,47.6,30.07,SE,133,0.0,0.0,96,0.00,,,-99.99,1.0,HOBO +U30 +Weather +,2013-09-07 01:53:00,
2013-09-06 21:54:00,48.3,47.4,30.06,SE,133,0.0,0.0,96,0.00,,,-99.99,1.0,HOBO +U30 +Weather +,2013-09-07 01:54:00,
2013-09-06 21:55:00,48.2,47.3,30.07,SE,133,0.0,0.0,96,0.00,,,-99.99,1.0,HOBO +U30 +Weather +,2013-09-07 01:55:00,
2013-09-06 21:56:00,48.1,47.2,30.06,SE,133,0.0,0.0,96,0.00,,,-99.99,1.0,HOBO +U30 +Weather +,2013-09-07 01:56:00,
2013-09-06 21:57:00,48.1,47.2,30.06,SE,133,0.0,0.0,96,0.00,,,-99.99,1.0,HOBO +U30 +Weather +,2013-09-07 01:57:00,
2013-09-06 21:58:00,48.1,47.2,30.05,SE,133,0.0,0.0,96,0.00,,,-99.99,1.0,HOBO +U30 +Weather +,2013-09-07 01:58:00,
2013-09-06 21:59:00,48.0,47.1,30.06,SE,133,0.0,0.0,96,0.00,,,-99.99,1.0,HOBO +U30 +Weather +,2013-09-07 01:59:00,
2013-09-06 22:00:00,47.8,46.9,30.06,SE,133,0.0,0.0,96,0.00,,,-99.99,1.0,HOBO +U30 +Weather +,2013-09-07 02:00:00,
2013-09-06 22:10:00,47.7,46.8,30.06,SE,133,0.0,0.0,96,0.00,,,-99.99,1.0,HOBO +U30 +Weather +,2013-09-07 02:10:00,
2013-09-06 22:19:00,47.9,47.0,30.06,SE,133,0.0,0.0,96,0.00,,,-99.99,1.0,HOBO +U30 +Weather +,2013-09-07 02:19:00,
2013-09-06 22:29:00,47.6,46.7,30.06,SE,133,0.0,0.0,96,0.00,,,-99.99,1.0,HOBO +U30 +Weather +,2013-09-07 02:29:00,
2013-09-06 22:30:00,47.0,46.2,30.06,SE,133,0.0,0.0,96,0.00,,,-99.99,1.0,HOBO +U30 +Weather +,2013-09-07 02:30:00,
2013-09-06 22:31:00,47.0,46.1,30.06,SE,133,0.0,0.0,96,0.00,,,-99.99,1.0,HOBO +U30 +Weather +,2013-09-07 02:31:00,
2013-09-06 22:32:00,47.0,46.1,30.05,SE,133,0.0,0.0,96,0.00,,,-99.99,1.0,HOBO +U30 +Weather +,2013-09-07 02:32:00,
2013-09-06 22:33:00,46.9,46.1,30.06,SE,133,0.0,0.0,96,0.00,,,-99.99,1.0,HOBO +U30 +Weather +,2013-09-07 02:33:00,
2013-09-06 22:34:00,47.0,46.2,30.06,SE,133,0.0,0.0,96,0.00,,,-99.99,1.0,HOBO +U30 +Weather +,2013-09-07 02:34:00,
2013-09-06 22:35:00,47.0,46.1,30.06,SE,133,0.0,0.0,96,0.00,,,-99.99,1.0,HOBO +U30 +Weather +,2013-09-07 02:35:00,
2013-09-06 22:36:00,47.1,46.3,30.06,SE,133,0.0,0.0,97,0.00,,,-99.99,1.0,HOBO +U30 +Weather +,2013-09-07 02:36:00,
2013-09-06 22:37:00,47.1,46.3,30.06,SE,133,0.0,0.0,97,0.00,,,-99.99,1.0,HOBO +U30 +Weather +,2013-09-07 02:37:00,
2013-09-06 22:38:00,47.0,46.2,30.06,SE,133,0.0,0.0,97,0.00,,,-99.99,1.0,HOBO +U30 +Weather +,2013-09-07 02:38:00,
2013-09-06 22:39:00,47.0,46.2,30.06,SE,133,0.0,0.0,97,0.00,,,-99.99,1.0,HOBO +U30 +Weather +,2013-09-07 02:39:00,
2013-09-06 22:40:00,47.0,46.2,30.06,SE,133,0.0,0.0,97,0.00,,,-99.99,1.0,HOBO +U30 +Weather +,2013-09-07 02:40:00,
2013-09-06 22:41:00,46.9,46.1,30.06,SE,133,0.0,0.0,96,0.00,,,-99.99,1.0,HOBO +U30 +Weather +,2013-09-07 02:41:00,
2013-09-06 22:42:00,46.9,46.1,30.06,SE,133,0.0,0.0,96,0.00,,,-99.99,1.0,HOBO +U30 +Weather +,2013-09-07 02:42:00,
2013-09-06 22:43:00,46.8,46.0,30.06,SE,133,0.0,0.0,97,0.00,,,-99.99,1.0,HOBO +U30 +Weather +,2013-09-07 02:43:00,
2013-09-06 22:44:00,46.8,46.0,30.06,SE,133,0.0,0.0,97,0.00,,,-99.99,1.0,HOBO +U30 +Weather +,2013-09-07 02:44:00,
2013-09-06 22:45:00,46.7,46.0,30.06,SE,133,0.0,0.0,97,0.00,,,-99.99,1.0,HOBO +U30 +Weather +,2013-09-07 02:45:00,
2013-09-06 22:46:00,46.7,45.9,30.06,SE,133,0.0,0.0,97,0.00,,,-99.99,1.0,HOBO +U30 +Weather +,2013-09-07 02:46:00,
2013-09-06 22:47:00,46.7,45.9,30.06,SE,133,0.0,0.0,97,0.00,,,-99.99,1.0,HOBO +U30 +Weather +,2013-09-07 02:47:00,
2013-09-06 22:48:00,46.7,45.9,30.06,SE,133,0.0,0.0,97,0.00,,,-99.99,1.0,HOBO +U30 +Weather +,2013-09-07 02:48:00,
2013-09-06 22:49:00,46.6,45.9,30.06,SE,133,0.0,0.0,97,0.00,,,-99.99,1.0,HOBO +U30 +Weather +,2013-09-07 02:49:00,
2013-09-06 22:50:00,46.6,45.9,30.06,SE,133,0.0,0.0,97,0.00,,,-99.99,1.0,HOBO +U30 +Weather +,2013-09-07 02:50:00,
2013-09-06 22:51:00,46.6,45.9,30.06,SE,133,0.0,0.0,97,0.00,,,-99.99,1.0,HOBO +U30 +Weather +,2013-09-07 02:51:00,
2013-09-06 22:52:00,46.6,45.9,30.06,SE,133,0.0,0.0,97,0.00,,,-99.99,1.0,HOBO +U30 +Weather +,2013-09-07 02:52:00,
2013-09-06 22:53:00,46.6,45.9,30.05,SE,133,0.0,0.0,97,0.00,,,-99.99,1.0,HOBO +U30 +Weather +,2013-09-07 02:53:00,
2013-09-06 22:54:00,46.6,45.9,30.06,SE,133,0.0,0.0,97,0.00,,,-99.99,1.0,HOBO +U30 +Weather +,2013-09-07 02:54:00,
2013-09-06 22:55:00,46.5,45.8,30.05,SE,133,0.0,0.0,97,0.00,,,-99.99,1.0,HOBO +U30 +Weather +,2013-09-07 02:55:00,
2013-09-06 22:56:00,46.5,45.8,30.06,SE,133,0.0,0.0,97,0.00,,,-99.99,1.0,HOBO +U30 +Weather +,2013-09-07 02:56:00,
2013-09-06 22:57:00,46.4,45.7,30.06,SE,133,0.0,0.0,97,0.00,,,-99.99,1.0,HOBO +U30 +Weather +,2013-09-07 02:57:00,
2013-09-06 22:58:00,46.4,45.7,30.06,SE,133,0.0,0.0,97,0.00,,,-99.99,1.0,HOBO +U30 +Weather +,2013-09-07 02:58:00,
2013-09-06 22:59:00,46.4,45.7,30.05,SE,133,0.0,0.0,97,0.00,,,-99.99,1.0,HOBO +U30 +Weather +,2013-09-07 02:59:00,
2013-09-06 23:09:00,46.3,45.7,30.06,SE,133,0.0,0.0,97,0.00,,,-99.99,1.0,HOBO +U30 +Weather +,2013-09-07 03:09:00,
2013-09-06 23:17:00,46.9,46.3,30.06,SE,133,0.0,0.0,97,0.00,,,-99.99,1.0,HOBO +U30 +Weather +,2013-09-07 03:17:00,
2013-09-06 23:27:00,46.3,45.7,30.06,SE,133,0.0,0.0,97,0.00,,,-99.99,1.0,HOBO +U30 +Weather +,2013-09-07 03:27:00,
2013-09-06 23:37:00,46.3,45.7,30.05,SE,133,0.0,0.0,97,0.00,,,-99.99,1.0,HOBO +U30 +Weather +,2013-09-07 03:37:00,
2013-09-06 23:38:00,46.5,45.8,30.05,SE,133,0.0,0.0,97,0.00,,,-99.99,1.0,HOBO +U30 +Weather +,2013-09-07 03:38:00,
2013-09-06 23:39:00,46.4,45.8,30.05,SE,133,0.0,0.0,97,0.00,,,-99.99,1.0,HOBO +U30 +Weather +,2013-09-07 03:39:00,
2013-09-06 23:40:00,46.3,45.6,30.05,SE,133,0.0,0.0,97,0.00,,,-99.99,1.0,HOBO +U30 +Weather +,2013-09-07 03:40:00,
2013-09-06 23:41:00,46.3,45.6,30.05,SE,133,0.0,0.0,97,0.00,,,-99.99,1.0,HOBO +U30 +Weather +,2013-09-07 03:41:00,
2013-09-06 23:42:00,46.3,45.6,30.05,SE,133,0.0,0.0,97,0.00,,,-99.99,1.0,HOBO +U30 +Weather +,2013-09-07 03:42:00,
2013-09-06 23:43:00,46.2,45.5,30.04,SE,133,0.0,0.0,97,0.00,,,-99.99,1.0,HOBO +U30 +Weather +,2013-09-07 03:43:00,
2013-09-06 23:44:00,46.1,45.4,30.05,SE,133,0.0,0.0,97,0.00,,,-99.99,1.0,HOBO +U30 +Weather +,2013-09-07 03:44:00,
2013-09-06 23:45:00,46.0,45.3,30.05,SE,133,0.0,0.0,97,0.00,,,-99.99,1.0,HOBO +U30 +Weather +,2013-09-07 03:45:00,
2013-09-06 23:46:00,46.1,45.4,30.05,SE,133,0.0,0.0,97,0.00,,,-99.99,1.0,HOBO +U30 +Weather +,2013-09-07 03:46:00,
2013-09-06 23:47:00,46.3,45.6,30.05,SE,133,0.0,0.0,97,0.00,,,-99.99,1.0,HOBO +U30 +Weather +,2013-09-07 03:47:00,
2013-09-06 23:48:00,46.2,45.5,30.04,SE,133,0.0,0.0,97,0.00,,,-99.99,1.0,HOBO +U30 +Weather +,2013-09-07 03:48:00,
2013-09-06 23:58:00,46.1,45.4,30.05,SE,133,0.0,0.0,97,0.00,,,-99.99,1.0,HOBO +U30 +Weather +,2013-09-07 03:58:00,